DGAA

Kotoka International Airport

Accra, Ghana
METAR DGAA 240900Z 25012KT 9999 BKN015 26/23 Q1014 NOSIG
Observed Flight Rules
Sep-24 @ 09:00 UTC (3 hours ago) Marginal Visual Flight Rules
Wind Visibility Clouds
250° at 12 knots 10,000+ meters
  • Broken at 1,500' AGL
Temperatures Readings
Current 26°C / 79°F
Dewpoint 23°C / 73°F
Humidity 84%
Altimeter 29.94" Hg
Pressure 1014 hPa
Elevation 69
METAR DGAA 240900Z 25012KT 9999 BKN015 26/23 Q1014 NOSIG
Observed Flight Rules
Sep-24 @ 09:00 UTC
(3 hours ago)
MVFR
Wind Visibility
250° at 12 knots 10,000+ meters
Clouds
  • Broken at 1,500' AGL
Temperature Dewpoint
26°C / 79°F 23°C / 73°F
Humidity Altimeter Pressure
84% 29.94" Hg 1014 hPa